createdAt,value
2019-04-03T00:01:47.481Z,100081.61
2019-04-03T00:04:19.165Z,100076.84
2019-04-03T00:06:50.676Z,100068.41
2019-04-03T00:09:21.820Z,100077.04
2019-04-03T00:11:53.967Z,100068.80
2019-04-03T00:14:25.236Z,100067.66
2019-04-03T00:16:57.034Z,100079.52
2019-04-03T00:19:28.768Z,100074.66
2019-04-03T00:22:00.010Z,100065.17
2019-04-03T00:24:31.273Z,100073.31
2019-04-03T00:27:02.964Z,100070.92
2019-04-03T00:29:34.278Z,100067.55
2019-04-03T00:32:05.722Z,100061.89
2019-04-03T00:34:36.936Z,100068.80
2019-04-03T00:37:08.643Z,100065.89
2019-04-03T00:39:39.987Z,100054.02
2019-04-03T00:42:11.175Z,100059.61
2019-04-03T00:44:42.706Z,100064.77
2019-04-03T00:47:14.160Z,100066.51
2019-04-03T00:49:46.191Z,100066.73
2019-04-03T00:52:17.505Z,100063.79
2019-04-03T00:54:48.847Z,100067.00
2019-04-03T00:57:20.129Z,100074.36
2019-04-03T00:59:51.333Z,100069.00
2019-04-03T01:02:23.982Z,100065.92
2019-04-03T01:04:57.990Z,100063.73
2019-04-03T01:07:29.199Z,100061.83
2019-04-03T01:10:00.967Z,100060.95
2019-04-03T01:12:33.664Z,100057.38
2019-04-03T01:15:05.742Z,100067.66
2019-04-03T01:17:37.064Z,100071.58
2019-04-03T01:20:09.281Z,100070.39
2019-04-03T01:22:41.122Z,100069.55
2019-04-03T01:25:12.322Z,100063.23
2019-04-03T01:27:47.713Z,100073.11
2019-04-03T01:30:19.370Z,100068.40
2019-04-03T01:32:51.133Z,100066.47
2019-04-03T01:35:22.381Z,100070.59
2019-04-03T01:37:54.207Z,100070.39
2019-04-03T01:40:25.516Z,100074.31
2019-04-03T01:42:56.779Z,100073.91
2019-04-03T01:45:28.107Z,100069.41
2019-04-03T01:47:59.362Z,100066.81
2019-04-03T01:50:30.650Z,100072.38
2019-04-03T01:53:02.497Z,100067.00
2019-04-03T01:55:35.058Z,100071.97
2019-04-03T01:58:07.106Z,100069.39
2019-04-03T02:00:38.469Z,100074.34
2019-04-03T02:03:10.395Z,100063.23
2019-04-03T02:05:44.090Z,100070.22
2019-04-03T02:08:15.475Z,100067.05
2019-04-03T02:10:48.262Z,100070.38
2019-04-03T02:13:21.167Z,100077.67
2019-04-03T02:15:53.121Z,100080.26
2019-04-03T02:18:25.321Z,100078.18
2019-04-03T02:20:57.690Z,100081.27
2019-04-03T02:23:30.753Z,100080.52
2019-04-03T02:26:03.047Z,100084.73
2019-04-03T02:28:35.627Z,100084.64
2019-04-03T02:31:07.242Z,100085.83
2019-04-03T02:33:38.602Z,100092.23
2019-04-03T02:36:12.500Z,100090.44
2019-04-03T02:38:43.466Z,100088.66
2019-04-03T02:41:14.675Z,100084.23
2019-04-03T02:43:47.672Z,100089.39
2019-04-03T02:46:19.066Z,100091.08
2019-04-03T02:48:50.671Z,100090.97
2019-04-03T02:51:22.048Z,100086.85
2019-04-03T02:53:53.885Z,100101.15
2019-04-03T02:56:25.154Z,100098.16
2019-04-03T02:58:56.492Z,100100.44
2019-04-03T03:01:28.658Z,100092.09
2019-04-03T03:04:00.036Z,100094.57
2019-04-03T03:06:32.765Z,100091.04
2019-04-03T03:09:04.961Z,100096.61
2019-04-03T03:11:36.282Z,100093.64
2019-04-03T03:14:08.388Z,100101.59
2019-04-03T03:16:41.986Z,100106.49
2019-04-03T03:19:14.346Z,100106.93
2019-04-03T03:21:46.551Z,100118.45
2019-04-03T03:24:19.300Z,100114.22
2019-04-03T03:26:50.650Z,100118.30
2019-04-03T03:29:26.417Z,100119.60
2019-04-03T03:32:08.630Z,100124.87
2019-04-03T03:34:47.268Z,100125.91
2019-04-03T03:37:04.146Z,100124.54
2019-04-03T03:39:36.007Z,100128.16
2019-04-03T03:42:08.687Z,100130.11
2019-04-03T03:44:45.546Z,100131.17
2019-04-03T03:47:16.061Z,100130.86
2019-04-03T03:49:49.751Z,100129.42
2019-04-03T03:52:21.815Z,100135.17
2019-04-03T03:54:54.169Z,100136.40
2019-04-03T03:57:26.573Z,100134.69
2019-04-03T03:59:59.562Z,100147.45
2019-04-03T04:02:31.511Z,100149.31
2019-04-03T04:05:10.418Z,100157.86
2019-04-03T04:07:39.724Z,100154.45
2019-04-03T04:10:11.156Z,100155.73
2019-04-03T04:12:43.995Z,100151.20
2019-04-03T04:15:15.710Z,100150.38
2019-04-03T04:17:50.054Z,100158.53
2019-04-03T04:20:20.955Z,100155.67
2019-04-03T04:22:52.317Z,100143.71
2019-04-03T04:25:24.487Z,100142.30
2019-04-03T04:27:56.075Z,100131.59
2019-04-03T04:30:27.318Z,100132.78
2019-04-03T04:32:58.788Z,100122.69
2019-04-03T04:35:30.163Z,100133.39
2019-04-03T04:38:03.384Z,100132.48
2019-04-03T04:40:35.046Z,100134.22
2019-04-03T04:43:08.238Z,100131.57
2019-04-03T04:45:40.792Z,100126.00
2019-04-03T04:48:15.587Z,100131.47
2019-04-03T04:50:46.257Z,100131.78
2019-04-03T04:53:17.882Z,100133.61
2019-04-03T04:55:49.194Z,100143.95
2019-04-03T04:58:20.599Z,100140.70
2019-04-03T05:00:53.478Z,100142.89
2019-04-03T05:03:25.113Z,100152.27
2019-04-03T05:05:58.573Z,100157.28
2019-04-03T05:08:30.839Z,100152.78
2019-04-03T05:11:03.684Z,100147.20
2019-04-03T05:13:34.860Z,100155.98
2019-04-03T05:16:06.989Z,100159.48
2019-04-03T05:18:38.389Z,100165.23
2019-04-03T05:21:09.618Z,100166.80
2019-04-03T05:23:41.123Z,100173.95
2019-04-03T05:26:13.166Z,100174.89
2019-04-03T05:28:53.538Z,100172.23
2019-04-03T05:31:20.336Z,100168.50
2019-04-03T05:33:51.649Z,100184.00
2019-04-03T05:36:23.054Z,100183.75
2019-04-03T05:38:55.097Z,100176.34
2019-04-03T05:41:28.340Z,100189.80
2019-04-03T05:44:01.889Z,100182.51
2019-04-03T05:46:32.969Z,100185.95
2019-04-03T05:49:04.471Z,100181.53
2019-04-03T05:51:37.431Z,100186.47
2019-04-03T05:54:08.794Z,100191.28
2019-04-03T05:56:42.424Z,100199.69
2019-04-03T05:59:13.643Z,100201.42
2019-04-03T06:01:46.714Z,100203.28
2019-04-03T06:04:18.633Z,100206.48
2019-04-03T06:06:50.263Z,100208.03
2019-04-03T06:09:22.364Z,100209.80
2019-04-03T06:11:54.776Z,100218.06
2019-04-03T06:14:26.338Z,100211.97
2019-04-03T06:16:57.583Z,100207.77
2019-04-03T06:19:28.817Z,100208.25
2019-04-03T06:22:00.179Z,100209.25
2019-04-03T06:24:32.574Z,100217.96
2019-04-03T06:27:04.116Z,100210.69
2019-04-03T06:29:35.994Z,100210.20
2019-04-03T06:32:07.359Z,100210.47
2019-04-03T06:34:42.168Z,100214.52
2019-04-03T06:37:14.909Z,100209.59
2019-04-03T06:39:46.153Z,100210.84
2019-04-03T06:42:17.541Z,100213.80
2019-04-03T06:44:52.760Z,100216.05
2019-04-03T06:47:23.146Z,100219.70
2019-04-03T06:49:54.319Z,100219.27
2019-04-03T06:52:26.693Z,100213.37
2019-04-03T06:54:58.042Z,100212.66
2019-04-03T06:57:29.433Z,100207.34
2019-04-03T07:00:00.784Z,100217.76
2019-04-03T07:02:32.429Z,100209.81
2019-04-03T07:05:04.449Z,100211.04
2019-04-03T07:07:37.414Z,100205.42
2019-04-03T07:10:09.950Z,100211.00
2019-04-03T07:12:41.964Z,100212.38
2019-04-03T07:15:13.720Z,100217.13
2019-04-03T07:17:45.025Z,100218.98
2019-04-03T07:20:19.734Z,100212.38
2019-04-03T07:22:49.578Z,100228.22
2019-04-03T07:25:20.902Z,100224.50
2019-04-03T07:27:52.897Z,100222.11
2019-04-03T07:30:24.764Z,100224.89
2019-04-03T07:32:58.333Z,100219.13
2019-04-03T07:35:31.106Z,100228.34
2019-04-03T07:38:02.467Z,100230.76
2019-04-03T07:40:33.749Z,100220.52
2019-04-03T07:43:05.159Z,100222.91
2019-04-03T07:45:36.491Z,100220.62
2019-04-03T07:48:07.825Z,100223.89
2019-04-03T07:50:39.760Z,100226.09
2019-04-03T07:53:12.272Z,100230.70
2019-04-03T07:55:44.342Z,100229.16
2019-04-03T07:58:15.776Z,100232.14
2019-04-03T08:02:38.712Z,100227.27
2019-04-03T08:05:10.329Z,100230.81
2019-04-03T08:07:41.711Z,100233.22
2019-04-03T08:10:13.661Z,100236.80
2019-04-03T08:12:45.023Z,100244.47
2019-04-03T08:15:16.538Z,100246.02
2019-04-03T08:17:49.894Z,100247.44
2019-04-03T08:20:20.826Z,100255.14
2019-04-03T08:22:52.262Z,100253.59
2019-04-03T08:25:23.519Z,100257.13
2019-04-03T08:27:55.682Z,100252.35
2019-04-03T08:30:27.120Z,100255.88
2019-04-03T08:32:58.579Z,100260.09
2019-04-03T08:35:29.849Z,100263.38
2019-04-03T08:38:02.754Z,100264.80
2019-04-03T08:40:34.088Z,100259.89
2019-04-03T08:43:06.232Z,100266.15
2019-04-03T08:45:38.427Z,100262.52
2019-04-03T08:48:10.654Z,100264.33
2019-04-03T08:50:42.338Z,100264.92
2019-04-03T08:53:13.794Z,100263.86
2019-04-03T08:55:46.432Z,100263.94
2019-04-03T08:58:20.798Z,100265.85
2019-04-03T09:00:51.033Z,100261.36
2019-04-03T09:03:27.613Z,100269.52
2019-04-03T09:05:59.710Z,100264.92
2019-04-03T09:08:31.682Z,100263.53
2019-04-03T09:11:05.067Z,100260.44
2019-04-03T09:15:36.162Z,100260.55
2019-04-03T09:18:07.784Z,100257.54
2019-04-03T09:20:40.941Z,100259.06
2019-04-03T09:23:12.617Z,100263.63
2019-04-03T09:25:43.878Z,100257.42
2019-04-03T09:28:15.350Z,100252.84
2019-04-03T09:30:47.945Z,100255.36
2019-04-03T09:33:20.332Z,100247.77
2019-04-03T09:35:52.341Z,100243.20
2019-04-03T09:38:23.590Z,100242.09
2019-04-03T09:40:54.958Z,100239.30
2019-04-03T09:43:28.946Z,100243.34
2019-04-03T09:46:00.901Z,100243.74
2019-04-03T09:48:34.865Z,100236.03
2019-04-03T09:51:09.171Z,100235.97
2019-04-03T09:53:40.330Z,100238.77
2019-04-03T09:56:12.595Z,100234.73
2019-04-03T09:58:44.045Z,100236.63
2019-04-03T10:01:17.980Z,100229.97
2019-04-03T10:03:48.918Z,100235.62
2019-04-03T10:06:26.789Z,100233.75
2019-04-03T10:09:00.135Z,100236.83
2019-04-03T10:11:39.680Z,100231.70
2019-04-03T10:14:11.606Z,100240.97
2019-04-03T10:16:47.538Z,100238.84
2019-04-03T10:19:21.225Z,100250.19
2019-04-03T10:21:53.609Z,100261.34
2019-04-03T10:24:31.766Z,100285.16
2019-04-03T10:27:03.797Z,100304.16
2019-04-03T10:29:36.685Z,100333.14
2019-04-03T10:32:12.689Z,100352.48
2019-04-03T10:34:52.290Z,100366.86
2019-04-03T10:37:25.573Z,100368.84
2019-04-03T10:40:13.936Z,100375.25
2019-04-03T10:42:46.090Z,100388.89
2019-04-03T10:45:20.139Z,100419.03
2019-04-03T10:47:55.439Z,100444.05
2019-04-03T10:50:25.721Z,100462.80
2019-04-03T10:52:59.607Z,100490.28
2019-04-03T10:55:33.556Z,100517.80
2019-04-03T10:58:07.705Z,100559.03
2019-04-03T11:00:41.801Z,100604.44
2019-04-03T11:03:16.608Z,100651.92
2019-04-03T11:05:48.542Z,100724.68
2019-04-03T11:08:21.097Z,100776.70
2019-04-03T11:10:53.177Z,100831.04
2019-04-03T11:13:24.757Z,100879.08
2019-04-03T11:15:56.339Z,100922.30
2019-04-03T11:18:27.688Z,100969.50
2019-04-03T11:21:00.365Z,101007.14
2019-04-03T11:23:40.542Z,101051.09
2019-04-03T11:26:04.806Z,101063.91
2019-04-03T11:28:38.195Z,101140.72
2019-04-03T11:31:10.094Z,101186.59
2019-04-03T11:33:44.395Z,101228.45
2019-04-03T11:36:14.440Z,101200.56
2019-04-03T11:38:45.748Z,101205.30
2019-04-03T11:41:19.264Z,101208.20
2019-04-03T11:43:52.076Z,101222.74
2019-04-03T11:46:24.495Z,101236.98
2019-04-03T11:48:56.428Z,101246.55
2019-04-03T11:51:29.617Z,101276.83
2019-04-03T11:54:01.157Z,101280.51
2019-04-03T11:56:32.721Z,101287.36
2019-04-03T11:59:04.449Z,101288.70
2019-04-03T12:01:36.787Z,101303.80
2019-04-03T12:04:08.190Z,101295.48
2019-04-03T12:06:41.775Z,101311.06
2019-04-03T12:09:21.680Z,101332.63
2019-04-03T12:11:55.082Z,101351.27
2019-04-03T12:14:40.441Z,101381.85
2019-04-03T12:17:11.695Z,101399.23
2019-04-03T12:19:45.470Z,101421.34
2019-04-03T12:22:16.378Z,101435.58
2019-04-03T12:24:47.735Z,101451.20
2019-04-03T12:27:19.074Z,101466.78
2019-04-03T12:29:53.863Z,101457.75
2019-04-03T12:32:35.785Z,101454.88
2019-04-03T12:34:57.555Z,101475.89
2019-04-03T12:37:29.511Z,101498.86
2019-04-03T12:40:01.573Z,101491.95
2019-04-03T12:42:34.310Z,101502.85
2019-04-03T12:45:07.937Z,101496.46
2019-04-03T12:47:42.841Z,101491.99
2019-04-03T12:50:14.915Z,100480.19
2019-04-03T12:52:46.371Z,100444.69
2019-04-03T12:55:18.374Z,100419.52
2019-04-03T12:57:49.591Z,100413.35
2019-04-03T13:00:21.677Z,100431.28
2019-04-03T13:02:53.499Z,100437.01
2019-04-03T13:05:25.507Z,100449.44
2019-04-03T13:07:59.206Z,100455.34
2019-04-03T13:10:40.331Z,100456.34
2019-04-03T13:13:02.757Z,100530.22
2019-04-03T13:15:37.123Z,100543.91
2019-04-03T13:18:07.123Z,100554.59
2019-04-03T13:20:39.782Z,100545.14
2019-04-03T13:23:13.317Z,100541.97
2019-04-03T13:25:45.731Z,100642.06
2019-04-03T13:28:17.432Z,100690.41
2019-04-03T13:30:49.450Z,101691.31
2019-04-03T13:33:21.259Z,101603.52
2019-04-03T13:35:52.898Z,101590.23
2019-04-03T13:38:24.349Z,101627.64
2019-04-03T13:40:56.150Z,101653.77
2019-04-03T13:43:27.714Z,101677.61
2019-04-03T13:45:59.573Z,101712.30
2019-04-03T13:48:30.941Z,101738.29
2019-04-03T13:51:02.994Z,101775.95
2019-04-03T13:53:34.202Z,101832.23
2019-04-03T13:56:06.748Z,101868.25
2019-04-03T13:58:39.539Z,101997.88
2019-04-03T14:01:10.979Z,102099.58
2019-04-03T14:03:43.066Z,102207.55
2019-04-03T14:06:14.867Z,102282.20
2019-04-03T14:08:46.729Z,102363.37
2019-04-03T14:11:18.453Z,102400.55
2019-04-03T14:13:50.564Z,102446.38
2019-04-03T14:16:23.495Z,102457.50
2019-04-03T14:18:55.481Z,102326.47
2019-04-03T14:21:27.778Z,102339.48
2019-04-03T14:24:01.465Z,102295.08
2019-04-03T14:26:33.079Z,102239.99
2019-04-03T14:29:07.682Z,102200.27
2019-04-03T14:31:38.727Z,102185.75
2019-04-03T14:34:10.148Z,102027.90
2019-04-03T14:36:43.074Z,100800.22
2019-04-03T14:39:15.070Z,100855.59
2019-04-03T14:41:46.465Z,100921.69
2019-04-03T14:44:17.907Z,100978.54
2019-04-03T14:46:50.709Z,101029.63
2019-04-03T14:49:22.193Z,101042.54
2019-04-03T14:51:53.992Z,101049.66
2019-04-03T14:54:27.171Z,101078.78
2019-04-03T14:56:58.484Z,101051.78
2019-04-03T14:59:30.274Z,101035.58
2019-04-03T15:02:02.603Z,101041.05
2019-04-03T15:04:36.522Z,101047.71
2019-04-03T15:07:09.432Z,101021.57
2019-04-03T15:09:40.880Z,101017.20
2019-04-03T15:12:12.981Z,100968.34
2019-04-03T15:14:45.026Z,100952.67
2019-04-03T15:17:16.407Z,100921.72
2019-04-03T15:19:47.726Z,100888.59
2019-04-03T15:22:19.161Z,100859.32
2019-04-03T15:24:51.585Z,100830.98
2019-04-03T15:27:22.896Z,100821.62
2019-04-03T15:29:54.492Z,100799.06
2019-04-03T15:32:26.455Z,100779.07
2019-04-03T15:35:00.291Z,100775.77
2019-04-03T15:37:31.527Z,100742.06
2019-04-03T15:40:03.475Z,100702.44
2019-04-03T15:42:38.444Z,100668.58
2019-04-03T15:45:11.440Z,100629.31
2019-04-03T15:47:46.842Z,100576.02
2019-04-03T15:50:16.495Z,100550.07
2019-04-03T15:52:49.408Z,100514.22
2019-04-03T15:55:20.881Z,100500.66
2019-04-03T15:57:53.260Z,100473.16
2019-04-03T16:00:27.555Z,100438.94
2019-04-03T16:02:59.444Z,100423.27
2019-04-03T16:05:34.228Z,100392.30
2019-04-03T16:08:04.173Z,100358.87
2019-04-03T16:10:36.163Z,100327.17
2019-04-03T16:13:08.072Z,100287.69
2019-04-03T16:15:39.988Z,100257.33
2019-04-03T16:18:11.486Z,100239.00
2019-04-03T16:20:42.727Z,100216.80
2019-04-03T16:23:14.046Z,100206.16
2019-04-03T16:25:48.494Z,100188.83
2019-04-03T16:28:18.360Z,100171.88
2019-04-03T16:30:52.709Z,100153.09
2019-04-03T16:33:25.000Z,100128.75
2019-04-03T16:35:57.565Z,100113.77
2019-04-03T16:38:30.095Z,100101.70
2019-04-03T16:41:04.523Z,100071.16
2019-04-03T16:43:37.073Z,100062.25
2019-04-03T16:46:11.329Z,100045.77
2019-04-03T16:48:42.201Z,100030.06
2019-04-03T16:51:13.756Z,100033.43
2019-04-03T16:53:45.867Z,100020.28
2019-04-03T16:56:18.914Z,100008.31
2019-04-03T16:58:50.482Z,100007.36
2019-04-03T17:01:21.889Z,99993.08
2019-04-03T17:03:56.244Z,100059.22
2019-04-03T17:06:28.207Z,100067.72
2019-04-03T17:08:59.894Z,100283.55
2019-04-03T17:11:32.330Z,100281.44
2019-04-03T17:14:04.055Z,100270.05
2019-04-03T17:16:37.395Z,100251.89
2019-04-03T17:19:08.795Z,100239.58
2019-04-03T17:21:40.279Z,100217.84
2019-04-03T17:24:11.847Z,100205.05
2019-04-03T17:26:51.290Z,100172.45
2019-04-03T17:29:19.835Z,100159.05
2019-04-03T17:31:51.785Z,100151.87
2019-04-03T17:34:24.541Z,100097.44
2019-04-03T17:36:55.889Z,100074.10
2019-04-03T17:39:27.582Z,100054.20
2019-04-03T17:41:59.208Z,100038.72
2019-04-03T17:44:30.459Z,100041.76
2019-04-03T17:47:02.931Z,100024.82
2019-04-03T17:49:34.225Z,100016.16
2019-04-03T17:52:05.795Z,99989.91
2019-04-03T17:54:38.543Z,99978.31
2019-04-03T17:57:10.220Z,99968.99
2019-04-03T17:59:41.953Z,99961.31
2019-04-03T18:02:13.195Z,99942.87
2019-04-03T18:04:45.685Z,99941.86
2019-04-03T18:07:17.065Z,99911.25
2019-04-03T18:09:48.414Z,99895.47
2019-04-03T18:12:21.683Z,99875.38
2019-04-03T18:14:52.673Z,99857.97
2019-04-03T18:17:23.960Z,99828.67
2019-04-03T18:19:55.363Z,99813.86
2019-04-03T18:22:26.715Z,99814.70
2019-04-03T18:24:58.208Z,99806.48
2019-04-03T18:27:30.061Z,99797.30
2019-04-03T18:30:01.574Z,99782.28
2019-04-03T18:32:33.385Z,99768.61
2019-04-03T18:35:07.153Z,99733.13
2019-04-03T18:37:40.946Z,99739.54
2019-04-03T18:40:14.113Z,99732.76
2019-04-03T18:42:44.690Z,99717.74
2019-04-03T18:45:24.985Z,99712.75
2019-04-03T18:47:50.974Z,99709.88
2019-04-03T18:50:22.097Z,99698.03
2019-04-03T18:52:54.818Z,99691.53
2019-04-03T18:55:26.728Z,99691.64
2019-04-03T18:57:58.103Z,99686.55
2019-04-03T19:00:30.738Z,99683.78
2019-04-03T19:03:04.074Z,99639.00
2019-04-03T19:05:35.605Z,99652.98
2019-04-03T19:08:12.895Z,99650.00
2019-04-03T19:10:39.951Z,99657.47
2019-04-03T19:13:13.967Z,99657.09
2019-04-03T19:15:46.156Z,99679.38
2019-04-03T19:18:19.926Z,99699.75
2019-04-03T19:20:51.554Z,99699.27
2019-04-03T19:23:22.948Z,99703.95
2019-04-03T19:25:54.263Z,99705.02
2019-04-03T19:28:25.682Z,99709.11
2019-04-03T19:30:57.102Z,99718.22
2019-04-03T19:33:28.826Z,99726.80
2019-04-03T19:36:00.192Z,99723.53
2019-04-03T19:38:31.719Z,99717.98
2019-04-03T19:41:03.317Z,99726.77
2019-04-03T19:43:34.976Z,99718.44
2019-04-03T19:46:07.547Z,99721.48
2019-04-03T19:48:39.277Z,99720.77
2019-04-03T19:51:10.687Z,99717.86
2019-04-03T19:53:44.368Z,99719.94
2019-04-03T19:56:15.638Z,99716.88
2019-04-03T19:58:46.944Z,99718.21
2019-04-03T20:01:19.658Z,99715.69
2019-04-03T20:03:51.723Z,99711.58
2019-04-03T20:06:23.505Z,99705.39
2019-04-03T20:08:55.349Z,99707.47
2019-04-03T20:11:28.285Z,99702.38
2019-04-03T20:13:59.647Z,99701.42
2019-04-03T20:16:33.246Z,99695.53
2019-04-03T20:19:05.005Z,99690.83
2019-04-03T20:21:36.489Z,99685.57
2019-04-03T20:24:08.839Z,99679.44
2019-04-03T20:26:46.387Z,99672.55
2019-04-03T20:29:17.872Z,99663.30
2019-04-03T20:31:49.317Z,99660.92
2019-04-03T20:34:25.454Z,99657.01
2019-04-03T20:36:56.770Z,99651.66
2019-04-03T20:39:29.042Z,99649.83
2019-04-03T20:42:03.175Z,99622.81
2019-04-03T20:44:33.871Z,99613.66
2019-04-03T20:47:05.244Z,99620.30
2019-04-03T20:49:43.752Z,99631.52
2019-04-03T20:52:14.571Z,99624.28
2019-04-03T20:54:45.742Z,99619.19
2019-04-03T20:57:16.968Z,99616.28
2019-04-03T20:59:58.372Z,99608.91
2019-04-03T21:02:21.214Z,99619.59
2019-04-03T21:04:52.950Z,99629.22
2019-04-03T21:07:24.614Z,99627.39
2019-04-03T21:09:56.705Z,99641.25
2019-04-03T21:12:28.530Z,99639.18
2019-04-03T21:15:08.217Z,99612.70
2019-04-03T21:17:32.824Z,99603.16
2019-04-03T21:20:04.185Z,99592.27
2019-04-03T21:22:35.493Z,99591.69
2019-04-03T21:25:06.866Z,99586.28
2019-04-03T21:27:40.083Z,99579.75
2019-04-03T21:30:12.577Z,99574.39
2019-04-03T21:32:43.829Z,99565.78
2019-04-03T21:35:15.130Z,99550.61
2019-04-03T21:37:46.410Z,99535.27
2019-04-03T21:40:17.820Z,99545.91
2019-04-03T21:42:49.175Z,99541.90
2019-04-03T21:45:20.450Z,99537.25
2019-04-03T21:47:52.106Z,99536.66
2019-04-03T21:50:23.658Z,99532.65
2019-04-03T21:52:54.801Z,99527.42
2019-04-03T21:55:26.050Z,99525.69
2019-04-03T21:57:57.239Z,99529.04
2019-04-03T22:01:07.285Z,99525.53
2019-04-03T22:03:38.494Z,99534.58
2019-04-03T22:06:10.144Z,99545.30
2019-04-03T22:08:41.395Z,99534.81
2019-04-03T22:11:12.864Z,99532.88
2019-04-03T22:13:44.195Z,99522.11
2019-04-03T22:16:15.439Z,99524.88
2019-04-03T22:18:46.987Z,99506.88
2019-04-03T22:21:18.163Z,99482.90
2019-04-03T22:23:49.500Z,99471.28
2019-04-03T22:26:20.764Z,99469.66
2019-04-03T22:28:52.018Z,99460.91
2019-04-03T22:31:23.369Z,99470.06
2019-04-03T22:33:55.076Z,99492.84
2019-04-03T22:36:26.364Z,99492.13
2019-04-03T22:38:57.977Z,99482.91
2019-04-03T22:41:29.122Z,99463.53
2019-04-03T22:44:00.754Z,99447.67
2019-04-03T22:48:21.073Z,99394.88
2019-04-03T22:50:52.433Z,99464.93
2019-04-03T22:53:23.645Z,99465.22
2019-04-03T22:55:54.989Z,99467.70
2019-04-03T22:58:27.390Z,99445.39
2019-04-03T23:00:59.159Z,99439.67
2019-04-03T23:03:31.952Z,99426.03
2019-04-03T23:06:03.918Z,99412.19
2019-04-03T23:08:35.651Z,99401.02
2019-04-03T23:11:06.900Z,99409.02
2019-04-03T23:13:38.100Z,99390.44
2019-04-03T23:16:09.644Z,99322.77
2019-04-03T23:18:42.330Z,99306.50
2019-04-03T23:21:13.597Z,99280.95
2019-04-03T23:23:44.832Z,99256.01
2019-04-03T23:26:16.111Z,99243.03
2019-04-03T23:28:47.469Z,99234.64
2019-04-03T23:31:18.684Z,99237.33
2019-04-03T23:33:49.915Z,99236.08
2019-04-03T23:36:22.965Z,99217.49
2019-04-03T23:38:56.372Z,99195.86
2019-04-03T23:41:28.811Z,99163.95
2019-04-03T23:44:00.014Z,99148.34
2019-04-03T23:46:31.228Z,99137.47
2019-04-03T23:49:02.539Z,99126.44
2019-04-03T23:51:33.794Z,99126.89
2019-04-03T23:54:05.003Z,99118.97
2019-04-03T23:56:38.653Z,99108.02
2019-04-03T23:59:09.088Z,99105.73
